1861 Hurricane NOT_NAMED (1861277N15320)


IBTrACS version v04r00. Visit IBTrACS website for data access.
Please direct all questions to the IBTrACS Q and A forum

Storm track - Intensity - Wind Radii - Intensity Data - Source Data - All data

Summary Information

Storm ID 1861277N15320
Start Oct 3 12Z
Max Intensity 70 kt (Oct 9 06Z), 985 mb (Oct 11 12Z)
End Oct 12 18Z
ATCF IDs
Track status Best track data.

Storm track plot

Map of storm track

Intensity plots

Map of storm track

Radial wind information

No radial wind information for this storm


Position and Intensity Table

BASIN ISO_TIME_________ NATURE LAT LON MLC WIND MLC PRES
degrees north degrees east kts mb
NA 1861-10-03 12:00:00 TS 15.00 -40.00 35
NA 15:00:00 TS 15.50 -40.70 35
NA 18:00:00 TS 16.00 -41.40 35
NA 21:00:00 TS 16.50 -42.10 35
NA 1861-10-04 00:00:00 TS 17.00 -42.80 35
NA 03:00:00 TS 17.50 -43.51 35
NA 06:00:00 TS 18.00 -44.20 35
NA 09:00:00 TS 18.51 -44.89 37
NA 12:00:00 TS 19.00 -45.50 40
NA 15:00:00 TS 19.46 -45.98 40
NA 18:00:00 TS 19.90 -46.40 40
NA 21:00:00 TS 20.36 -46.85 40
NA 1861-10-05 00:00:00 TS 20.80 -47.30 40
NA 03:00:00 TS 21.20 -47.76 40
NA 06:00:00 TS 21.60 -48.20 40
NA 09:00:00 TS 22.04 -48.63 42
NA 12:00:00 TS 22.50 -49.00 45
NA 15:00:00 TS 22.94 -49.27 45
NA 18:00:00 TS 23.40 -49.50 45
NA 21:00:00 TS 23.90 -49.75 45
NA 1861-10-06 00:00:00 TS 24.40 -50.00 45
NA 03:00:00 TS 24.86 -50.25 45
NA 06:00:00 TS 25.30 -50.50 45
NA 09:00:00 TS 25.75 -50.77 47
NA 12:00:00 TS 26.20 -51.00 50
NA 15:00:00 TS 26.64 -51.12 50
NA 18:00:00 TS 27.10 -51.20 50
NA 21:00:00 TS 27.59 -51.29 50
NA 1861-10-07 00:00:00 TS 28.10 -51.40 50
NA 03:00:00 TS 28.61 -51.56 50
NA 06:00:00 TS 29.10 -51.70 50
NA 09:00:00 TS 29.58 -51.77 52
NA 12:00:00 TS 30.00 -51.80 55
NA 15:00:00 TS 30.32 -51.81 55
NA 18:00:00 TS 30.60 -51.80 55
NA 21:00:00 TS 30.90 -51.82 57
NA 1861-10-08 00:00:00 TS 31.20 -51.80 60
NA 03:00:00 TS 31.51 -51.67 60
NA 06:00:00 TS 31.80 -51.50 60
NA 09:00:00 TS 32.06 -51.42 62
NA 12:00:00 TS 32.30 -51.30 65
NA 15:00:00 TS 32.51 -51.02 65
NA 18:00:00 TS 32.70 -50.70 65
NA 21:00:00 TS 32.90 -50.49 65
NA 1861-10-09 00:00:00 TS 33.10 -50.20 65
NA 03:00:00 TS 33.31 -49.70 67
NA 06:00:00 TS 33.50 -49.10 70
NA 09:00:00 TS 33.65 -48.55 70
NA 12:00:00 TS 33.80 -48.00 70
NA 15:00:00 TS 34.00 -47.45 70
NA 18:00:00 TS 34.20 -46.90 70
NA 21:00:00 TS 34.35 -46.35 70
NA 1861-10-10 00:00:00 TS 34.50 -45.80 70
NA 03:00:00 TS 34.70 -45.25 70
NA 06:00:00 TS 34.90 -44.70 70
NA 09:00:00 TS 35.06 -44.15 70
NA 12:00:00 TS 35.20 -43.60 70
NA 15:00:00 TS 35.34 -43.05 70
NA 18:00:00 TS 35.50 -42.50 70
NA 21:00:00 TS 35.69 -41.95 70
NA 1861-10-11 00:00:00 TS 35.90 -41.40 70
NA 03:00:00 TS 36.10 -40.86 70
NA 06:00:00 TS 36.30 -40.30 70
NA 09:00:00 TS 36.50 -39.84 70
NA 12:00:00 TS 36.70 -39.00 70 985
NA 15:00:00 TS 36.85 -37.37 70
NA 18:00:00 TS 37.00 -35.40 70
NA 21:00:00 TS 37.20 -33.53 70
NA 1861-10-12 00:00:00 TS 37.40 -31.80 70
NA 03:00:00 TS 37.55 -30.50 67
NA 06:00:00 TS 37.70 -29.20 65
NA 09:00:00 TS 37.83 -27.51 62
NA 12:00:00 TS 38.00 -25.60 60
NA 15:00:00 TS 38.24 -23.58 55
NA 18:00:00 TS 38.50 -21.50 50

Source Information

Agency Information
USA
TOKYO
CMA
HKO
NEWDELHI
REUNION
BOM
NADI
WELLINGTON
DS824
TD9636
TD9635
NEUMANN
MLC

All available IBTrACS Data

SEASON BASIN SUBBASIN ISO_TIME_________ NATURE LAT LON DIST2LAND LANDFALL IFLAG USA SSHS MLC LAT MLC LON MLC CLASS MLC WIND MLC PRES STORM SPEED STORM DIR
Year degrees north degrees east km km 1 degrees north degrees east kts mb kts degrees
1861 NA NA 1861-10-03 12:00:00 TS 15.00 -40.00 1722 1707 _____________O -1 15.00 -40.00 TS 35 17 307
1861 NA NA 15:00:00 TS 15.50 -40.70 1708 1696 _____________P -1 15.50 -40.70 TS 35 17 307
1861 NA NA 18:00:00 TS 16.00 -41.40 1699 1689 _____________O -1 16.00 -41.40 TS 35 17 307
1861 NA NA 21:00:00 TS 16.50 -42.10 1696 1691 _____________P -1 16.50 -42.10 TS 35 17 307
1861 NA NA 1861-10-04 00:00:00 TS 17.00 -42.80 1697 1689 _____________O -1 17.00 -42.80 TS 35 17 307
1861 NA NA 03:00:00 TS 17.50 -43.51 1696 1689 _____________P -1 17.50 -43.51 TS 35 17 307
1861 NA NA 06:00:00 TS 18.00 -44.20 1699 1697 _____________O -1 18.00 -44.20 TS 35 17 308
1861 NA NA 09:00:00 TS 18.51 -44.89 1708 1707 _____________P -1 18.51 -44.89 TS 37 16 309
1861 NA NA 12:00:00 TS 19.00 -45.50 1726 1726 _____________O -1 19.00 -45.50 TS 40 14 313
1861 NA NA 15:00:00 TS 19.46 -45.98 1752 1747 _____________P -1 19.46 -45.98 TS 40 12 317
1861 NA NA 18:00:00 TS 19.90 -46.40 1775 1775 _____________O -1 19.90 -46.40 TS 40 12 318
1861 NA NA 21:00:00 TS 20.36 -46.85 1804 1804 _____________P -1 20.36 -46.85 TS 40 12 317
1861 NA NA 1861-10-05 00:00:00 TS 20.80 -47.30 1826 1822 _____________O -1 20.80 -47.30 TS 40 12 315
1861 NA NA 03:00:00 TS 21.20 -47.76 1834 1830 _____________P -1 21.20 -47.76 TS 40 12 314
1861 NA NA 06:00:00 TS 21.60 -48.20 1830 1817 _____________O -1 21.60 -48.20 TS 40 12 316
1861 NA NA 09:00:00 TS 22.04 -48.63 1817 1785 _____________P -1 22.04 -48.63 TS 42 12 321
1861 NA NA 12:00:00 TS 22.50 -49.00 1787 1767 _____________O -1 22.50 -49.00 TS 45 11 327
1861 NA NA 15:00:00 TS 22.94 -49.27 1767 1758 _____________P -1 22.94 -49.27 TS 45 10 333
1861 NA NA 18:00:00 TS 23.40 -49.50 1761 1751 _____________O -1 23.40 -49.50 TS 45 11 335
1861 NA NA 21:00:00 TS 23.90 -49.75 1748 1743 _____________P -1 23.90 -49.75 TS 45 11 335
1861 NA NA 1861-10-06 00:00:00 TS 24.40 -50.00 1746 1739 _____________O -1 24.40 -50.00 TS 45 11 334
1861 NA NA 03:00:00 TS 24.86 -50.25 1738 1732 _____________P -1 24.86 -50.25 TS 45 10 333
1861 NA NA 06:00:00 TS 25.30 -50.50 1736 1727 _____________O -1 25.30 -50.50 TS 45 10 332
1861 NA NA 09:00:00 TS 25.75 -50.77 1732 1728 _____________P -1 25.75 -50.77 TS 47 10 333
1861 NA NA 12:00:00 TS 26.20 -51.00 1734 1730 _____________O -1 26.20 -51.00 TS 50 10 341
1861 NA NA 15:00:00 TS 26.64 -51.12 1746 1746 _____________P -1 26.64 -51.12 TS 50 9 349
1861 NA NA 18:00:00 TS 27.10 -51.20 1765 1765 _____________O -1 27.10 -51.20 TS 50 10 351
1861 NA NA 21:00:00 TS 27.59 -51.29 1785 1785 _____________P -1 27.59 -51.29 TS 50 10 350
1861 NA NA 1861-10-07 00:00:00 TS 28.10 -51.40 1807 1807 _____________O -1 28.10 -51.40 TS 50 10 347
1861 NA NA 03:00:00 TS 28.61 -51.56 1823 1823 _____________P -1 28.61 -51.56 TS 50 10 345
1861 NA NA 06:00:00 TS 29.10 -51.70 1848 1848 _____________O -1 29.10 -51.70 TS 50 10 349
1861 NA NA 09:00:00 TS 29.58 -51.77 1875 1852 _____________P -1 29.58 -51.77 TS 52 9 355
1861 NA NA 12:00:00 TS 30.00 -51.80 1852 1818 _____________O -1 30.00 -51.80 TS 55 7 357
1861 NA NA 15:00:00 TS 30.32 -51.81 1818 1785 _____________P -1 30.32 -51.81 TS 55 6 1
1861 NA NA 18:00:00 TS 30.60 -51.80 1785 1751 _____________O -1 30.60 -51.80 TS 55 6 0
1861 NA NA 21:00:00 TS 30.90 -51.82 1751 1718 _____________P -1 30.90 -51.82 TS 57 6 1
1861 NA NA 1861-10-08 00:00:00 TS 31.20 -51.80 1718 1685 _____________O -1 31.20 -51.80 TS 60 6 13
1861 NA NA 03:00:00 TS 31.51 -51.67 1685 1653 _____________P -1 31.51 -51.67 TS 60 7 23
1861 NA NA 06:00:00 TS 31.80 -51.50 1653 1621 _____________O -1 31.80 -51.50 TS 60 6 20
1861 NA NA 09:00:00 TS 32.06 -51.42 1621 1599 _____________P -1 32.06 -51.42 TS 62 5 19
1861 NA NA 12:00:00 TS 32.30 -51.30 1599 1579 _____________O -1 32.30 -51.30 HU 65 6 37
1861 NA NA 15:00:00 TS 32.51 -51.02 1580 1560 _____________P -1 32.51 -51.02 HU 65 6 52
1861 NA NA 18:00:00 TS 32.70 -50.70 1561 1541 _____________O -1 32.70 -50.70 HU 65 6 49
1861 NA NA 21:00:00 TS 32.90 -50.49 1541 1522 _____________P -1 32.90 -50.49 HU 65 6 46
1861 NA NA 1861-10-09 00:00:00 TS 33.10 -50.20 1523 1506 _____________O -1 33.10 -50.20 HU 65 8 58
1861 NA NA 03:00:00 TS 33.31 -49.70 1509 1494 _____________P -1 33.31 -49.70 HU 67 10 66
1861 NA NA 06:00:00 TS 33.50 -49.10 1498 1491 _____________O -1 33.50 -49.10 HU 70 10 70
1861 NA NA 09:00:00 TS 33.65 -48.55 1499 1485 _____________P -1 33.65 -48.55 HU 70 10 72
1861 NA NA 12:00:00 TS 33.80 -48.00 1490 1478 _____________O -1 33.80 -48.00 HU 70 10 69
1861 NA NA 15:00:00 TS 34.00 -47.45 1481 1474 _____________P -1 34.00 -47.45 HU 70 10 66
1861 NA NA 18:00:00 TS 34.20 -46.90 1477 1473 _____________O -1 34.20 -46.90 HU 70 10 69
1861 NA NA 21:00:00 TS 34.35 -46.35 1485 1475 _____________P -1 34.35 -46.35 HU 70 10 72
1861 NA NA 1861-10-10 00:00:00 TS 34.50 -45.80 1482 1475 _____________O -1 34.50 -45.80 HU 70 10 69
1861 NA NA 03:00:00 TS 34.70 -45.25 1479 1477 _____________P -1 34.70 -45.25 HU 70 10 66
1861 NA NA 06:00:00 TS 34.90 -44.70 1482 1480 _____________O -1 34.90 -44.70 HU 70 10 68
1861 NA NA 09:00:00 TS 35.06 -44.15 1487 1487 _____________P -1 35.06 -44.15 HU 70 9 72
1861 NA NA 12:00:00 TS 35.20 -43.60 1499 1498 _____________O -1 35.20 -43.60 HU 70 9 72
1861 NA NA 15:00:00 TS 35.34 -43.05 1516 1507 _____________P -1 35.34 -43.05 HU 70 9 71
1861 NA NA 18:00:00 TS 35.50 -42.50 1521 1521 _____________O -1 35.50 -42.50 HU 70 10 69
1861 NA NA 21:00:00 TS 35.69 -41.95 1532 1528 _____________P -1 35.69 -41.95 HU 70 10 66
1861 NA NA 1861-10-11 00:00:00 TS 35.90 -41.40 1540 1536 _____________O -1 35.90 -41.40 HU 70 10 65
1861 NA NA 03:00:00 TS 36.10 -40.86 1549 1549 _____________P -1 36.10 -40.86 HU 70 10 66
1861 NA NA 06:00:00 TS 36.30 -40.30 1564 1561 _____________O -1 36.30 -40.30 HU 70 9 64
1861 NA NA 09:00:00 TS 36.50 -39.84 1576 1573 _____________P -1 36.50 -39.84 HU 70 11 69
1861 NA NA 12:00:00 TS 36.70 -39.00 1606 1606 _____________O -1 36.70 -39.00 HU 70 985 20 80
1861 NA NA 15:00:00 TS 36.85 -37.37 1688 1688 _____________P -1 36.85 -37.37 HU 70 29 84
1861 NA NA 18:00:00 TS 37.00 -35.40 1808 1808 _____________O -1 37.00 -35.40 HU 70 31 84
1861 NA NA 21:00:00 TS 37.20 -33.53 1843 1731 _____________P -1 37.20 -33.53 HU 70 29 82
1861 NA NA 1861-10-12 00:00:00 TS 37.40 -31.80 1724 1641 _____________O -1 37.40 -31.80 HU 70 24 82
1861 NA NA 03:00:00 TS 37.55 -30.50 1641 1563 _____________P -1 37.55 -30.50 HU 67 21 82
1861 NA NA 06:00:00 TS 37.70 -29.20 1556 1457 _____________O -1 37.70 -29.20 HU 65 24 83
1861 NA NA 09:00:00 TS 37.83 -27.51 1451 1359 _____________P -1 37.83 -27.51 HU 62 29 84
1861 NA NA 12:00:00 TS 38.00 -25.60 1354 1232 _____________O -1 38.00 -25.60 TS 60 31 83
1861 NA NA 15:00:00 TS 38.24 -23.58 1224 1047 _____________P -1 38.24 -23.58 TS 55 33 81
1861 NA NA 18:00:00 TS 38.50 -21.50 1038 _____________O -1 38.50 -21.50 TS 50 33 81